Ezra, Illinois
Current Conditions -  °F | °C
As of 7:52 AM on Sunday 21 Dec 2014 (Local Time) from KMWA Reporting Station
Broken Clouds Broken Clouds  
Wind Chill: 21°   Ceiling: 25000
Heat Index: 28°   Visibility: 15mi
Dew Point: 27°   Wind: 7mph
Humidity: 93%   Direction: 110°ESE
Pressure: 30.26"   Gusts: NA
Location:  37.9074°N, 88.9501°W
Report Text: KMWA 211352Z 11006KT 15SM SCT030 BKN250 M02/M03 A3026
Loading
Personal Weather Stations






























Interactive Weather Map New forecast layout! Learn more

10-Day Weather Forecast

Advertisements
Track Severe Weather on mobile